Time;durP1;ratioP1;P1;durP2;ratioP2;P2;SDS_P1;SDS_P2;PMS_P1;PMS_P2;Temp;Humidity;BMP_temperature;BMP_pressure;BME280_temperature;BME280_humidity;BME280_pressure;Samples;Min_cycle;Max_cycle;Signal;HPM_P1;HPM_P2
2022/10/21 00:00:24;;;;;;;4.67;4.37;;;21.60;46.10;;;;;;5029105;28;20228;-58
2022/10/21 00:02:50;;;;;;;3.80;3.60;;;21.60;46.00;;;;;;5029901;28;20240;-61
2022/10/21 00:05:16;;;;;;;4.00;3.80;;;21.60;46.10;;;;;;5046116;28;20305;-61
2022/10/21 00:07:41;;;;;;;4.47;4.10;;;21.60;46.00;;;;;;5043396;28;20644;-61
2022/10/21 00:10:08;;;;;;;3.97;3.77;;;21.60;46.10;;;;;;5032988;28;20234;-61
2022/10/21 00:12:34;;;;;;;4.47;4.27;;;21.60;46.10;;;;;;5045980;27;20222;-60
2022/10/21 00:14:59;;;;;;;4.77;4.47;;;21.60;46.10;;;;;;5034677;27;20557;-60
2022/10/21 00:17:25;;;;;;;4.17;3.87;;;21.60;46.10;;;;;;5023005;28;20464;-60
2022/10/21 00:19:50;;;;;;;5.00;4.63;;;21.60;46.10;;;;;;5015942;28;20213;-60
2022/10/21 00:22:16;;;;;;;4.27;4.07;;;21.60;46.10;;;;;;5019363;28;20238;-61
2022/10/21 00:24:41;;;;;;;4.33;4.13;;;21.60;46.10;;;;;;5031865;28;20222;-60
2022/10/21 00:27:07;;;;;;;4.00;3.70;;;21.60;46.10;;;;;;5032962;28;20485;-61
2022/10/21 00:29:32;;;;;;;4.33;4.13;;;21.60;46.10;;;;;;5034624;28;20218;-62
2022/10/21 00:31:58;;;;;;;4.83;4.50;;;21.60;46.10;;;;;;5031625;28;20226;-62
2022/10/21 00:34:24;;;;;;;4.40;4.10;;;21.60;46.10;;;;;;5035062;28;20554;-63
2022/10/21 00:36:49;;;;;;;3.57;3.37;;;21.60;46.00;;;;;;5012802;28;20230;-58
2022/10/21 00:39:15;;;;;;;4.40;4.20;;;21.60;46.10;;;;;;5025596;28;20222;-60
2022/10/21 00:41:40;;;;;;;4.30;4.00;;;21.60;46.10;;;;;;5008982;28;20231;-59
2022/10/21 00:44:10;;;;;;;4.10;3.90;;;21.60;46.10;;;;;;5025477;28;21928;-62
2022/10/21 00:46:46;;;;;;;4.47;4.27;;;21.60;46.10;;;;;;5031547;28;20249;-59
2022/10/21 00:49:21;;;;;;;3.70;3.50;;;21.60;46.10;;;;;;5032800;28;20445;-61
2022/10/21 00:51:48;;;;;;;3.90;3.70;;;21.60;46.10;;;;;;5029521;28;20454;-59
2022/10/21 00:54:16;;;;;;;4.57;4.27;;;21.60;46.10;;;;;;5029093;28;20512;-61
2022/10/21 00:56:45;;;;;;;4.13;3.93;;;21.60;46.10;;;;;;5023369;28;20464;-60
2022/10/21 00:59:11;;;;;;;6.03;4.03;;;21.60;46.10;;;;;;5032507;28;20417;-61
2022/10/21 01:01:37;;;;;;;3.70;3.50;;;21.60;46.10;;;;;;5029299;28;20434;-59
2022/10/21 01:04:04;;;;;;;3.70;3.50;;;21.60;46.80;;;;;;5031850;28;20452;-62
2022/10/21 01:06:31;;;;;;;3.70;3.50;;;21.60;46.10;;;;;;5032770;28;20230;-63
2022/10/21 01:08:58;;;;;;;3.90;3.60;;;21.60;46.10;;;;;;5034570;28;20471;-63
2022/10/21 01:11:25;;;;;;;4.37;4.17;;;21.60;46.10;;;;;;5032974;28;20440;-63
2022/10/21 01:14:13;;;;;;;3.80;3.50;;;21.60;46.10;;;;;;5030725;28;20426;-62
2022/10/21 01:16:55;;;;;;;3.43;3.13;;;21.60;46.00;;;;;;5030445;28;20445;-58
2022/10/21 01:19:55;;;;;;;4.17;3.87;;;21.60;46.10;;;;;;5033438;28;20460;-62
2022/10/21 01:22:50;;;;;;;4.20;4.00;;;21.60;46.10;;;;;;5035635;28;20478;-62
2022/10/21 01:26:00;;;;;;;4.30;4.10;;;21.60;46.10;;;;;;5033349;28;20467;-63
2022/10/21 01:28:33;;;;;;;3.70;3.50;;;21.60;46.10;;;;;;5027271;28;20955;-63
2022/10/21 01:31:07;;;;;;;4.00;3.80;;;21.60;46.10;;;;;;5019140;28;20508;-63
2022/10/21 01:33:52;;;;;;;3.90;3.70;;;21.60;46.10;;;;;;5014698;28;20478;-58
2022/10/21 01:36:33;;;;;;;3.77;3.57;;;21.60;46.00;;;;;;5012552;28;20458;-63
2022/10/21 01:39:15;;;;;;;3.53;3.33;;;21.60;46.10;;;;;;5011937;28;21563;-63
2022/10/21 01:42:13;;;;;;;4.10;3.80;;;21.60;46.10;;;;;;5008558;28;20530;-58
2022/10/21 01:44:47;;;;;;;3.43;3.23;;;21.60;46.10;;;;;;5016224;28;20852;-61
2022/10/21 01:47:18;;;;;;;3.70;3.50;;;21.60;46.10;;;;;;5023605;28;21350;-63
2022/10/21 01:49:51;;;;;;;3.73;3.53;;;21.60;46.00;;;;;;5035827;28;20462;-62
2022/10/21 01:52:16;;;;;;;3.80;3.60;;;21.60;46.10;;;;;;5031331;28;20584;-62
2022/10/21 01:54:51;;;;;;;4.07;3.87;;;21.60;46.10;;;;;;5030630;28;20915;-63
2022/10/21 01:57:21;;;;;;;4.33;4.07;;;21.60;46.10;;;;;;5027858;28;20271;-60
2022/10/21 01:59:47;;;;;;;4.03;3.73;;;21.60;46.10;;;;;;5022830;28;20810;-62
2022/10/21 02:02:15;;;;;;;4.00;3.70;;;21.60;46.00;;;;;;5012626;28;20475;-63
2022/10/21 02:04:41;;;;;;;4.10;3.90;;;21.60;46.10;;;;;;5009435;28;20456;-60
2022/10/21 02:07:08;;;;;;;3.97;3.77;;;21.60;46.10;;;;;;5008343;28;20461;-62
2022/10/21 02:09:33;;;;;;;4.00;3.80;;;21.60;46.10;;;;;;5018032;28;20478;-63
2022/10/21 02:12:02;;;;;;;4.07;3.87;;;21.60;46.10;;;;;;5009278;28;20856;-59
2022/10/21 02:14:33;;;;;;;3.77;3.57;;;21.60;46.10;;;;;;5027692;28;20229;-61
2022/10/21 02:16:59;;;;;;;3.70;3.40;;;21.60;46.10;;;;;;5005986;28;20468;-59
2022/10/21 02:19:25;;;;;;;3.93;3.73;;;21.60;46.10;;;;;;5012821;28;20452;-61
2022/10/21 02:21:54;;;;;;;3.67;3.47;;;21.60;46.10;;;;;;5015738;28;20888;-58
2022/10/21 02:24:23;;;;;;;4.20;3.90;;;21.60;46.10;;;;;;5022835;28;20548;-59
2022/10/21 02:26:48;;;;;;;3.70;3.50;;;21.60;46.10;;;;;;5025767;28;20459;-60
2022/10/21 02:29:18;;;;;;;3.30;3.10;;;21.60;46.80;;;;;;5011560;28;20429;-62
2022/10/21 02:32:10;;;;;;;3.40;3.20;;;21.60;46.00;;;;;;5006927;28;20276;-59
2022/10/21 02:34:54;;;;;;;3.50;3.30;;;21.60;46.10;;;;;;5013011;28;20460;-58
2022/10/21 02:37:24;;;;;;;3.70;3.50;;;21.60;46.20;;;;;;5006402;28;20475;-60
2022/10/21 02:39:55;;;;;;;3.23;3.13;;;21.60;46.10;;;;;;5002169;28;20460;-62
2022/10/21 02:42:25;;;;;;;3.40;3.20;;;21.60;46.10;;;;;;5027264;28;20479;-61
2022/10/21 02:44:52;;;;;;;3.43;3.23;;;21.60;46.10;;;;;;5026070;28;21147;-61
2022/10/21 02:47:18;;;;;;;3.50;3.30;;;21.60;46.10;;;;;;5015836;28;21213;-61
2022/10/21 02:49:44;;;;;;;3.57;3.37;;;21.60;46.00;;;;;;5007763;28;20448;-63
2022/10/21 02:52:10;;;;;;;4.00;3.80;;;21.60;46.10;;;;;;5018926;28;20455;-60
2022/10/21 02:54:35;;;;;;;3.67;3.47;;;21.60;46.10;;;;;;5029229;28;20880;-61
2022/10/21 02:57:01;;;;;;;3.47;3.27;;;21.60;46.10;;;;;;5026611;28;20606;-59
2022/10/21 02:59:26;;;;;;;3.83;3.63;;;21.60;46.10;;;;;;5025377;28;20241;-62
2022/10/21 03:01:52;;;;;;;3.27;3.07;;;21.60;46.10;;;;;;5008772;28;20227;-60
2022/10/21 03:04:17;;;;;;;3.53;3.33;;;21.60;46.10;;;;;;5028223;28;20789;-62
2022/10/21 03:06:43;;;;;;;4.00;3.80;;;21.60;46.10;;;;;;5024999;28;20230;-59
2022/10/21 03:09:09;;;;;;;3.73;3.53;;;21.60;46.10;;;;;;5026591;28;20226;-62
2022/10/21 03:11:34;;;;;;;3.50;3.30;;;21.60;46.10;;;;;;5027229;28;20325;-62
2022/10/21 03:14:00;;;;;;;3.17;2.97;;;21.60;46.90;;;;;;5024451;28;20257;-60
2022/10/21 03:16:25;;;;;;;3.40;3.20;;;21.60;46.10;;;;;;5027247;28;20226;-62
2022/10/21 03:18:51;;;;;;;3.90;3.70;;;21.60;46.00;;;;;;5017812;28;20932;-61
2022/10/21 03:21:16;;;;;;;3.43;3.23;;;21.60;46.10;;;;;;5011504;28;20226;-63
2022/10/21 03:23:42;;;;;;;3.27;3.07;;;21.60;46.00;;;;;;5028358;28;20724;-59
2022/10/21 03:26:07;;;;;;;3.37;3.17;;;21.60;46.10;;;;;;5029620;28;20669;-63
2022/10/21 03:28:33;;;;;;;3.13;2.93;;;21.60;46.00;;;;;;5025518;28;20499;-63
2022/10/21 03:30:58;;;;;;;3.57;3.37;;;21.60;46.10;;;;;;5024417;28;20218;-63
2022/10/21 03:33:24;;;;;;;2.80;2.70;;;21.60;46.10;;;;;;5007464;28;20229;-61
2022/10/21 03:35:49;;;;;;;3.20;3.00;;;21.60;46.10;;;;;;5013455;28;20335;-59
2022/10/21 03:38:15;;;;;;;2.63;2.53;;;21.60;46.10;;;;;;5027717;28;20226;-63
2022/10/21 03:40:40;;;;;;;3.27;3.07;;;21.60;46.00;;;;;;5028783;28;20232;-58
2022/10/21 03:43:06;;;;;;;2.67;2.57;;;21.60;46.10;;;;;;5027687;28;20238;-63
2022/10/21 03:45:31;;;;;;;3.50;3.30;;;21.60;46.10;;;;;;5014105;28;20221;-63
2022/10/21 03:47:57;;;;;;;3.23;3.03;;;21.60;46.10;;;;;;5025861;28;20218;-62
2022/10/21 03:50:23;;;;;;;2.97;2.77;;;21.60;46.10;;;;;;5028970;28;20551;-62
2022/10/21 03:52:48;;;;;;;2.60;2.50;;;21.60;46.10;;;;;;5021200;28;20238;-63
2022/10/21 03:55:16;;;;;;;3.43;3.23;;;21.60;46.10;;;;;;5014287;28;20688;-61
2022/10/21 03:57:41;;;;;;;3.37;3.17;;;21.50;46.00;;;;;;5032680;28;20221;-59
2022/10/21 04:00:07;;;;;;;2.60;2.50;;;21.60;46.10;;;;;;5029691;28;20498;-63
2022/10/21 04:02:33;;;;;;;3.10;2.90;;;21.60;46.00;;;;;;5030143;28;21135;-62
2022/10/21 04:04:58;;;;;;;3.20;3.00;;;21.60;46.10;;;;;;5015090;28;20542;-57
2022/10/21 04:07:24;;;;;;;3.00;2.90;;;21.60;46.10;;;;;;5025015;28;20332;-63
2022/10/21 04:09:49;;;;;;;2.90;2.80;;;21.60;46.10;;;;;;5018471;28;20226;-62
2022/10/21 04:12:15;;;;;;;2.97;2.67;;;21.50;46.00;;;;;;5017489;28;20361;-62
2022/10/21 04:14:40;;;;;;;2.67;2.57;;;21.60;46.10;;;;;;5024117;28;20228;-62
2022/10/21 04:17:06;;;;;;;3.03;2.83;;;21.50;46.00;;;;;;5027603;28;20528;-60
2022/10/21 04:19:31;;;;;;;2.50;2.40;;;21.50;46.00;;;;;;5029444;28;20232;-61
2022/10/21 04:21:57;;;;;;;3.37;3.13;;;21.60;46.10;;;;;;5016742;28;20233;-59
2022/10/21 04:24:22;;;;;;;3.10;2.90;;;21.60;46.10;;;;;;5013645;28;21628;-61
2022/10/21 04:26:48;;;;;;;2.97;2.70;;;21.60;46.10;;;;;;5019616;28;20222;-59
2022/10/21 04:29:13;;;;;;;3.87;3.57;;;21.60;46.10;;;;;;5010865;28;20755;-63
2022/10/21 04:31:39;;;;;;;2.67;2.47;;;21.60;46.10;;;;;;5018326;28;20720;-60
2022/10/21 04:34:04;;;;;;;3.13;2.93;;;21.60;46.10;;;;;;5023984;28;20221;-60
2022/10/21 04:36:30;;;;;;;2.60;2.40;;;21.60;46.10;;;;;;5013274;28;20234;-59
2022/10/21 04:38:55;;;;;;;3.43;3.23;;;21.60;46.10;;;;;;5007444;28;20217;-60
2022/10/21 04:41:21;;;;;;;3.20;3.00;;;21.60;46.10;;;;;;5009218;28;20575;-61
2022/10/21 04:43:46;;;;;;;2.63;2.53;;;21.60;46.10;;;;;;5009667;28;20569;-59
2022/10/21 04:46:14;;;;;;;2.80;2.70;;;21.60;46.10;;;;;;5007844;28;20230;-61
2022/10/21 04:48:40;;;;;;;2.90;2.70;;;21.60;46.10;;;;;;5030416;28;20733;-61
2022/10/21 04:51:05;;;;;;;2.83;2.63;;;21.60;46.10;;;;;;5026723;28;20463;-60
2022/10/21 04:53:31;;;;;;;2.60;2.50;;;21.60;46.10;;;;;;5034204;28;20222;-62
2022/10/21 04:55:56;;;;;;;2.40;2.30;;;21.60;46.10;;;;;;5029727;28;20783;-60
2022/10/21 04:58:22;;;;;;;2.60;2.50;;;21.60;46.10;;;;;;5032753;28;20544;-61
2022/10/21 05:00:51;;;;;;;2.50;2.40;;;21.60;46.10;;;;;;5030072;28;20748;-62
2022/10/21 05:03:17;;;;;;;2.83;2.63;;;21.60;46.10;;;;;;5005211;28;20247;-60
2022/10/21 05:05:43;;;;;;;3.00;2.80;;;21.60;46.10;;;;;;5020526;28;20447;-58
2022/10/21 05:08:08;;;;;;;2.40;2.30;;;21.60;46.10;;;;;;5012631;28;20452;-63
2022/10/21 05:10:34;;;;;;;2.57;2.47;;;21.70;46.20;;;;;;5012475;28;20218;-63
2022/10/21 05:12:59;;;;;;;2.83;2.67;;;21.70;46.20;;;;;;5012428;28;20699;-63
2022/10/21 05:15:25;;;;;;;2.70;2.60;;;21.70;46.20;;;;;;5029884;28;20225;-59
2022/10/21 05:17:51;;;;;;;3.20;3.00;;;21.60;46.10;;;;;;5031884;28;20670;-61
2022/10/21 05:20:18;;;;;;;3.10;2.63;;;21.60;46.10;;;;;;5026440;28;20254;-62
2022/10/21 05:22:43;;;;;;;2.70;2.50;;;21.70;46.20;;;;;;5024453;28;20454;-64
2022/10/21 05:25:09;;;;;;;2.47;2.27;;;21.70;46.20;;;;;;5018577;28;20467;-63
2022/10/21 05:27:35;;;;;;;2.73;2.50;;;21.70;46.20;;;;;;5012004;28;20242;-63
2022/10/21 05:30:00;;;;;;;5.47;2.47;;;21.70;46.20;;;;;;5023577;28;20222;-64
2022/10/21 05:32:26;;;;;;;2.80;2.60;;;21.70;46.20;;;;;;5032644;28;20245;-63
2022/10/21 05:34:51;;;;;;;3.07;2.23;;;21.70;46.20;;;;;;5016292;28;21801;-63
2022/10/21 05:37:17;;;;;;;5.63;2.60;;;21.70;46.20;;;;;;5018788;28;20832;-65
2022/10/21 05:39:43;;;;;;;3.10;2.90;;;21.70;46.20;;;;;;5024084;28;20226;-62
2022/10/21 05:42:08;;;;;;;2.63;2.20;;;21.70;46.20;;;;;;5030124;28;20229;-63
2022/10/21 05:44:34;;;;;;;2.43;2.23;;;21.70;46.20;;;;;;5023764;28;20222;-65
2022/10/21 05:46:59;;;;;;;3.40;2.77;;;21.70;46.20;;;;;;5025362;28;22401;-65
2022/10/21 05:49:25;;;;;;;2.87;2.30;;;21.70;46.20;;;;;;5031096;28;20234;-65
2022/10/21 05:51:50;;;;;;;2.40;2.30;;;21.70;46.20;;;;;;5032746;28;20226;-61
2022/10/21 05:54:16;;;;;;;2.40;2.20;;;21.70;46.20;;;;;;5030392;28;22312;-62
2022/10/21 05:56:42;;;;;;;2.50;2.30;;;21.70;46.20;;;;;;5019141;28;20227;-60
2022/10/21 05:59:10;;;;;;;7.50;2.60;;;21.70;46.20;;;;;;5009134;28;20230;-66
2022/10/21 06:01:36;;;;;;;2.60;2.40;;;21.70;46.20;;;;;;5023467;28;20219;-62
2022/10/21 06:04:02;;;;;;;2.17;2.07;;;21.70;46.20;;;;;;5007080;28;20526;-59
2022/10/21 06:06:28;;;;;;;2.63;2.43;;;21.70;46.20;;;;;;5009875;28;21296;-64
2022/10/21 06:08:53;;;;;;;2.77;2.57;;;21.70;46.20;;;;;;5022682;28;20226;-59
2022/10/21 06:11:19;;;;;;;2.23;2.00;;;21.70;46.20;;;;;;5029373;28;20209;-63
2022/10/21 06:13:45;;;;;;;3.13;2.93;;;21.70;46.20;;;;;;5031423;28;20222;-61
2022/10/21 06:16:12;;;;;;;2.30;2.20;;;21.70;46.20;;;;;;5026613;28;20228;-65
2022/10/21 06:18:38;;;;;;;2.50;2.40;;;21.70;46.20;;;;;;5018859;28;20525;-66
2022/10/21 06:21:05;;;;;;;2.83;2.60;;;21.70;46.20;;;;;;5010309;28;21321;-61
2022/10/21 06:23:31;;;;;;;2.97;2.80;;;21.70;46.20;;;;;;5013730;28;20478;-65
2022/10/21 06:26:25;;;;;;;4.30;2.63;;;21.70;46.20;;;;;;5006639;28;20472;-61
2022/10/21 06:28:51;;;;;;;3.23;2.53;;;21.70;46.20;;;;;;5022287;28;20221;-63
2022/10/21 06:31:20;;;;;;;2.30;2.20;;;21.70;46.20;;;;;;5024591;28;22469;-65
2022/10/21 06:33:46;;;;;;;2.03;1.83;;;21.70;46.20;;;;;;5017045;28;20211;-66
2022/10/21 06:36:12;;;;;;;3.47;2.30;;;21.70;46.20;;;;;;5016683;28;20471;-66
2022/10/21 06:38:37;;;;;;;7.57;2.17;;;21.70;46.20;;;;;;5028788;28;20217;-67
2022/10/21 06:41:06;;;;;;;3.47;2.47;;;21.70;46.20;;;;;;5010269;28;20227;-61
2022/10/21 06:43:32;;;;;;;2.50;2.33;;;21.70;46.20;;;;;;5013450;28;20242;-67
2022/10/21 06:46:03;;;;;;;2.40;2.30;;;21.70;46.20;;;;;;5029521;28;20451;-64
2022/10/21 06:48:29;;;;;;;2.13;2.03;;;21.70;46.20;;;;;;5029863;28;20793;-68
2022/10/21 06:51:05;;;;;;;2.60;2.40;;;21.70;46.20;;;;;;5015923;28;20551;-64
2022/10/21 06:53:32;;;;;;;11.67;2.63;;;21.70;46.20;;;;;;5012293;28;20230;-65
2022/10/21 06:56:11;;;;;;;2.63;2.43;;;21.70;46.20;;;;;;5021592;28;20452;-64
2022/10/21 06:58:38;;;;;;;2.20;2.10;;;21.70;46.20;;;;;;5011615;28;21095;-66
2022/10/21 07:01:09;;;;;;;2.37;2.17;;;21.70;46.20;;;;;;5008219;28;21337;-67
2022/10/21 07:03:34;;;;;;;2.63;2.47;;;21.70;46.20;;;;;;5022148;28;20616;-66
2022/10/21 07:06:00;;;;;;;2.30;2.20;;;21.70;46.20;;;;;;5026531;28;20972;-60
2022/10/21 07:08:27;;;;;;;2.33;2.13;;;21.70;46.20;;;;;;5029527;28;20497;-67
2022/10/21 07:10:53;;;;;;;2.20;2.10;;;21.70;46.20;;;;;;5029011;28;20459;-62
2022/10/21 07:13:19;;;;;;;4.70;2.20;;;21.70;46.20;;;;;;5029012;28;20457;-68
2022/10/21 07:15:45;;;;;;;3.00;1.83;;;21.70;46.20;;;;;;5032723;28;20609;-62
2022/10/21 07:18:10;;;;;;;2.57;2.23;;;21.70;46.20;;;;;;5027003;28;20237;-67
2022/10/21 07:20:36;;;;;;;2.10;2.00;;;21.70;46.20;;;;;;5019607;28;20266;-67
2022/10/21 07:23:01;;;;;;;1.90;1.80;;;21.70;46.20;;;;;;5010029;28;20241;-63
2022/10/21 07:25:27;;;;;;;4.97;2.07;;;21.70;46.30;;;;;;5012448;28;20230;-67
2022/10/21 07:27:52;;;;;;;3.57;1.90;;;21.70;46.20;;;;;;5015892;28;20243;-61
2022/10/21 07:30:18;;;;;;;2.07;1.97;;;21.70;46.20;;;;;;5012511;28;20268;-68
2022/10/21 07:32:43;;;;;;;2.30;2.10;;;21.70;46.20;;;;;;5014949;28;20233;-67
2022/10/21 07:35:09;;;;;;;2.60;2.00;;;21.70;46.20;;;;;;5012442;28;20226;-61
2022/10/21 07:37:34;;;;;;;2.20;2.00;;;21.70;46.20;;;;;;5023085;28;20230;-67
2022/10/21 07:40:00;;;;;;;2.30;2.10;;;21.70;46.20;;;;;;5030663;28;20218;-58
2022/10/21 07:42:27;;;;;;;1.97;1.87;;;21.70;46.20;;;;;;5030887;28;20306;-65
2022/10/21 07:44:58;;;;;;;2.30;2.20;;;21.70;46.20;;;;;;5035453;28;20225;-66
2022/10/21 07:47:24;;;;;;;1.70;1.60;;;21.70;46.20;;;;;;5030441;28;20471;-63
2022/10/21 07:49:50;;;;;;;1.93;1.83;;;21.70;46.20;;;;;;5017804;28;20487;-64
2022/10/21 07:52:16;;;;;;;2.33;2.23;;;21.70;46.20;;;;;;5032546;28;20576;-64
2022/10/21 07:54:41;;;;;;;2.23;2.03;;;21.70;46.20;;;;;;5032454;28;20424;-61
2022/10/21 07:57:07;;;;;;;2.40;2.30;;;21.70;46.20;;;;;;5009134;28;20280;-61
2022/10/21 07:59:32;;;;;;;2.27;2.17;;;21.70;46.20;;;;;;5029959;28;20280;-67
2022/10/21 08:01:58;;;;;;;2.27;2.07;;;21.70;46.20;;;;;;5028899;28;20228;-67
2022/10/21 08:04:28;;;;;;;1.90;1.80;;;21.70;46.20;;;;;;5028993;28;20327;-65
2022/10/21 08:06:54;;;;;;;2.00;1.90;;;21.70;46.20;;;;;;5032923;28;20244;-58
2022/10/21 08:09:21;;;;;;;2.37;2.27;;;21.70;46.20;;;;;;5022310;28;20550;-67
2022/10/21 08:11:46;;;;;;;2.50;2.40;;;21.70;46.20;;;;;;5016035;28;20470;-66
2022/10/21 08:14:14;;;;;;;1.90;1.80;;;21.70;46.20;;;;;;5019216;28;21228;-65
2022/10/21 08:16:39;;;;;;;2.37;2.23;;;21.70;46.20;;;;;;5028325;28;20226;-67
2022/10/21 08:19:06;;;;;;;1.90;1.80;;;21.70;47.00;;;;;;5029978;28;20473;-66
2022/10/21 08:21:32;;;;;;;1.80;1.70;;;21.70;46.20;;;;;;5023770;28;20223;-64
2022/10/21 08:24:00;;;;;;;2.07;1.97;;;21.70;46.20;;;;;;5029174;28;20894;-64
2022/10/21 08:26:25;;;;;;;3.43;1.80;;;21.70;46.20;;;;;;5021688;28;20686;-64
2022/10/21 08:28:51;;;;;;;1.70;1.60;;;21.70;46.20;;;;;;5027706;28;20567;-63
2022/10/21 08:31:19;;;;;;;1.73;1.63;;;21.70;46.20;;;;;;5009624;28;21191;-64
2022/10/21 08:33:45;;;;;;;1.90;1.80;;;21.70;46.20;;;;;;5023563;28;20222;-62
2022/10/21 08:36:14;;;;;;;1.73;1.63;;;21.70;46.20;;;;;;5031065;28;20430;-61
2022/10/21 08:38:39;;;;;;;1.80;1.70;;;21.70;46.20;;;;;;5031878;28;20463;-66
2022/10/21 08:41:27;;;;;;;2.40;2.20;;;21.70;46.20;;;;;;5026685;28;20501;-63
2022/10/21 08:44:24;;;;;;;2.13;2.00;;;21.70;46.10;;;;;;5018550;28;20227;-64
2022/10/21 08:47:02;;;;;;;1.80;1.70;;;21.70;46.20;;;;;;5026412;28;20459;-63
2022/10/21 08:49:49;;;;;;;2.03;1.93;;;21.70;46.20;;;;;;5020003;28;20469;-64
2022/10/21 08:52:20;;;;;;;2.00;1.90;;;21.70;46.20;;;;;;5022309;28;20456;-65
2022/10/21 08:55:00;;;;;;;1.90;1.80;;;21.60;46.10;;;;;;5012564;28;20444;-64
2022/10/21 08:57:26;;;;;;;2.40;2.20;;;21.70;46.20;;;;;;5023994;28;20463;-65
2022/10/21 08:59:53;;;;;;;1.93;1.83;;;21.70;46.20;;;;;;5033506;28;20538;-58
2022/10/21 09:02:51;;;;;;;1.80;1.70;;;21.60;46.10;;;;;;5030902;28;20830;-60
2022/10/21 09:05:51;;;;;;;2.07;1.97;;;21.60;46.10;;;;;;5025622;28;20468;-67
2022/10/21 09:08:30;;;;;;;2.20;2.00;;;21.60;46.10;;;;;;5020477;28;20550;-61
2022/10/21 09:11:19;;;;;;;2.20;2.00;;;21.60;46.10;;;;;;5011814;28;20555;-66
2022/10/21 09:13:49;;;;;;;2.13;1.93;;;21.60;46.10;;;;;;5013306;28;20451;-65
2022/10/21 09:17:05;;;;;;;1.90;1.80;;;21.60;46.10;;;;;;5020187;28;20467;-66
2022/10/21 09:20:05;;;;;;;2.13;1.70;;;21.70;46.20;;;;;;5010767;28;20468;-66
2022/10/21 09:22:45;;;;;;;1.70;1.50;;;21.60;46.10;;;;;;5010383;28;20848;-64
2022/10/21 09:25:17;;;;;;;1.97;1.87;;;21.60;46.10;;;;;;5009923;28;20491;-64
2022/10/21 09:27:42;;;;;;;2.13;1.93;;;21.60;46.10;;;;;;5015635;28;20459;-66
2022/10/21 09:30:15;;;;;;;1.90;1.80;;;21.60;46.00;;;;;;5008164;28;20464;-60
2022/10/21 09:32:48;;;;;;;3.00;2.00;;;21.60;46.10;;;;;;5012092;28;20308;-60
2022/10/21 09:35:30;;;;;;;1.90;1.80;;;21.60;46.10;;;;;;5008496;28;20597;-60
2022/10/21 09:38:15;;;;;;;2.00;1.90;;;21.60;46.10;;;;;;5014088;28;20440;-64
2022/10/21 09:40:41;;;;;;;1.87;1.77;;;21.60;46.10;;;;;;5012065;28;21214;-61
2022/10/21 09:43:16;;;;;;;2.10;2.00;;;21.60;46.10;;;;;;5011229;28;20471;-66
2022/10/21 09:45:44;;;;;;;2.30;2.13;;;21.60;46.10;;;;;;5012740;28;20463;-66
2022/10/21 09:48:19;;;;;;;2.20;2.10;;;21.60;46.10;;;;;;5016655;28;20547;-63
2022/10/21 09:50:47;;;;;;;1.80;1.70;;;21.60;46.10;;;;;;5011877;28;20531;-66
2022/10/21 09:53:50;;;;;;;2.00;1.90;;;21.60;46.10;;;;;;5012533;28;20982;-66
2022/10/21 09:56:35;;;;;;;1.87;1.77;;;21.60;46.10;;;;;;5003513;28;20459;-65
2022/10/21 09:59:16;;;;;;;2.17;2.03;;;21.60;46.10;;;;;;5020225;28;20461;-61
2022/10/21 10:01:43;;;;;;;2.10;2.00;;;21.60;46.10;;;;;;5017980;28;20462;-62
2022/10/21 10:04:32;;;;;;;1.90;1.70;;;21.60;46.10;;;;;;5017110;28;20471;-64
2022/10/21 10:07:01;;;;;;;2.40;1.90;;;21.60;46.10;;;;;;5026227;28;20470;-65
2022/10/21 10:09:28;;;;;;;2.60;2.50;;;21.60;46.10;;;;;;5030108;28;20465;-63
2022/10/21 10:12:02;;;;;;;1.90;1.80;;;21.60;46.10;;;;;;5029279;28;20460;-64
2022/10/21 10:14:39;;;;;;;2.00;1.90;;;21.60;46.10;;;;;;5028641;28;20459;-64
2022/10/21 10:17:24;;;;;;;2.20;2.10;;;21.60;46.10;;;;;;5026887;28;20466;-60
2022/10/21 10:20:07;;;;;;;2.23;2.13;;;21.60;46.10;;;;;;5028021;28;20439;-66
2022/10/21 10:22:36;;;;;;;1.93;1.83;;;21.60;46.10;;;;;;5029374;28;20833;-66
2022/10/21 10:25:10;;;;;;;2.17;2.07;;;21.60;46.10;;;;;;5031446;28;20451;-66
2022/10/21 10:27:46;;;;;;;1.67;1.57;;;21.60;46.10;;;;;;5029286;28;20794;-66
2022/10/21 10:30:15;;;;;;;2.17;2.03;;;21.60;46.10;;;;;;5027336;28;20813;-59
2022/10/21 10:32:42;;;;;;;2.87;2.67;;;21.60;46.10;;;;;;5026059;28;20578;-61
2022/10/21 10:35:19;;;;;;;2.30;2.20;;;21.60;46.10;;;;;;5014399;28;20456;-63
2022/10/21 10:37:47;;;;;;;2.50;2.40;;;21.60;46.10;;;;;;5029990;28;20463;-66
2022/10/21 10:40:21;;;;;;;2.30;2.20;;;21.60;46.10;;;;;;5029855;28;20509;-60
2022/10/21 10:42:47;;;;;;;2.37;2.27;;;21.60;46.10;;;;;;5014013;28;21032;-66
2022/10/21 10:45:18;;;;;;;2.53;2.43;;;21.60;46.10;;;;;;5022600;28;20459;-59
2022/10/21 10:47:52;;;;;;;2.97;2.77;;;21.60;46.10;;;;;;5009627;28;20221;-65
2022/10/21 10:50:36;;;;;;;3.20;3.00;;;21.60;46.10;;;;;;5012934;28;20459;-59
2022/10/21 10:53:24;;;;;;;2.57;2.47;;;21.60;46.10;;;;;;5031612;28;20499;-57
2022/10/21 10:55:59;;;;;;;2.93;2.70;;;21.60;46.20;;;;;;5030520;28;20959;-66
2022/10/21 10:58:28;;;;;;;3.07;2.87;;;21.60;46.10;;;;;;5023102;28;20455;-65
2022/10/21 11:00:58;;;;;;;3.10;2.90;;;21.60;46.20;;;;;;5012012;28;20460;-61
2022/10/21 11:03:34;;;;;;;3.30;3.10;;;21.60;46.20;;;;;;5008963;28;20826;-59
2022/10/21 11:06:15;;;;;;;3.40;3.20;;;21.60;46.30;;;;;;5017307;28;20464;-65
2022/10/21 11:08:44;;;;;;;2.83;2.70;;;21.60;46.30;;;;;;5015216;28;20460;-64
2022/10/21 11:11:20;;;;;;;3.20;3.00;;;21.60;46.20;;;;;;5031072;28;20475;-62
2022/10/21 11:13:45;;;;;;;3.37;3.10;;;21.60;46.20;;;;;;5031385;28;21023;-65
2022/10/21 11:16:29;;;;;;;3.27;3.07;;;21.60;46.30;;;;;;5028325;28;20463;-64
2022/10/21 11:19:12;;;;;;;3.77;3.20;;;21.60;46.30;;;;;;5032385;28;20351;-65
2022/10/21 11:21:51;;;;;;;3.37;3.17;;;21.60;46.30;;;;;;5013083;28;20467;-64
2022/10/21 11:24:40;;;;;;;3.13;2.93;;;21.60;46.40;;;;;;5007634;28;20459;-63
2022/10/21 11:27:24;;;;;;;2.93;2.73;;;21.60;46.50;;;;;;5020722;28;20498;-63
2022/10/21 11:30:16;;;;;;;3.07;2.87;;;21.60;46.30;;;;;;5017701;28;20455;-61
2022/10/21 11:32:55;;;;;;;3.60;3.30;;;21.60;46.50;;;;;;5005847;28;20460;-65
2022/10/21 11:35:24;;;;;;;3.63;3.33;;;21.60;46.50;;;;;;5003696;28;20551;-60
2022/10/21 11:38:11;;;;;;;4.33;3.93;;;21.60;46.50;;;;;;5008030;28;20828;-66
2022/10/21 11:40:53;;;;;;;3.97;3.57;;;21.60;46.50;;;;;;5010619;28;20495;-64
2022/10/21 11:43:46;;;;;;;3.90;3.70;;;21.60;46.50;;;;;;5018116;28;21001;-58
2022/10/21 11:46:25;;;;;;;2.90;2.70;;;21.60;46.50;;;;;;5022630;28;20474;-63
2022/10/21 11:49:20;;;;;;;3.03;2.83;;;21.60;46.50;;;;;;5026035;28;23276;-62
2022/10/21 11:52:06;;;;;;;3.30;3.10;;;21.60;46.50;;;;;;5037374;28;20480;-63
2022/10/21 11:55:07;;;;;;;4.03;3.73;;;21.60;46.50;;;;;;5033809;28;20459;-65
2022/10/21 11:57:35;;;;;;;3.33;3.13;;;21.60;46.60;;;;;;5037027;28;20593;-66
2022/10/21 12:00:18;;;;;;;3.47;3.27;;;21.60;46.50;;;;;;5039651;28;20514;-64
2022/10/21 12:02:45;;;;;;;3.40;3.20;;;21.60;46.50;;;;;;5043387;28;20481;-65
2022/10/21 12:05:15;;;;;;;3.63;3.40;;;21.60;46.60;;;;;;5021896;28;20471;-65
2022/10/21 12:07:49;;;;;;;3.80;3.50;;;21.60;46.60;;;;;;5028363;28;21056;-65
2022/10/21 12:10:51;;;;;;;3.87;3.67;;;21.60;46.50;;;;;;5026985;28;20459;-67
2022/10/21 12:13:40;;;;;;;3.53;3.33;;;21.60;46.50;;;;;;5026168;28;20454;-63
2022/10/21 12:16:09;;;;;;;3.50;3.30;;;21.60;47.30;;;;;;5035364;28;20478;-63
2022/10/21 12:18:43;;;;;;;4.20;3.80;;;21.60;46.50;;;;;;5021429;28;20459;-69
2022/10/21 12:21:20;;;;;;;4.77;3.70;;;21.60;46.50;;;;;;5040542;28;20464;-68
2022/10/21 12:23:52;;;;;;;3.70;3.50;;;21.60;46.50;;;;;;5026674;28;20455;-68
2022/10/21 12:26:31;;;;;;;3.80;3.60;;;21.60;46.50;;;;;;5043089;28;20458;-67
2022/10/21 12:29:10;;;;;;;3.70;3.40;;;21.60;46.60;;;;;;5033458;28;20460;-68
2022/10/21 12:31:55;;;;;;;4.00;3.70;;;21.60;46.60;;;;;;5019229;28;20832;-68
2022/10/21 12:34:22;;;;;;;3.60;3.30;;;21.60;46.50;;;;;;5027800;28;20452;-63
2022/10/21 12:36:49;;;;;;;3.23;3.03;;;21.60;46.60;;;;;;5024882;28;20460;-67
2022/10/21 12:39:33;;;;;;;3.80;3.60;;;21.60;46.50;;;;;;5023455;28;20445;-66
2022/10/21 12:42:10;;;;;;;3.40;3.10;;;21.60;46.50;;;;;;5022043;28;20534;-66
2022/10/21 12:44:36;;;;;;;3.13;2.93;;;21.60;46.50;;;;;;5023101;28;20551;-66
2022/10/21 12:47:19;;;;;;;2.50;2.40;;;21.60;46.50;;;;;;5022858;28;20452;-64
2022/10/21 12:49:45;;;;;;;3.03;2.83;;;21.60;46.60;;;;;;5023092;28;20462;-66
2022/10/21 12:52:14;;;;;;;3.00;2.80;;;21.60;46.50;;;;;;5023791;28;20491;-67
2022/10/21 12:54:51;;;;;;;3.07;2.80;;;21.60;46.50;;;;;;5040261;28;20257;-64
2022/10/21 12:57:23;;;;;;;3.00;2.80;;;21.60;46.60;;;;;;5036830;28;21203;-67
2022/10/21 12:59:48;;;;;;;2.90;2.70;;;21.60;46.50;;;;;;5021413;28;20434;-64
2022/10/21 13:02:24;;;;;;;2.73;2.53;;;21.60;46.50;;;;;;5018719;28;20440;-69
2022/10/21 13:04:55;;;;;;;3.20;3.00;;;21.60;46.50;;;;;;5016270;28;20218;-63
2022/10/21 13:07:29;;;;;;;3.00;2.80;;;21.60;46.50;;;;;;5018012;28;22306;-64